Mphakane, South Africa
Current Conditions -  °F | °C
As of 3:00 PM on Friday 31 Oct 2014 (Local Time) from FAPP Reporting Station
Clear Clear  
Wind Chill: 82°   Ceiling: Unl
Heat Index: 82°   Visibility: 6mi
Dew Point: 50°   Wind: 14mph
Humidity: 32%   Direction: 30°NNE
Pressure: 30.12"   Gusts: NA
Location:  23.52°S, 29.7°E
Report Text: FAPP 311300Z 03012KT CAVOK 28/10 Q1020 NOSIG
Loading
Personal Weather Stations






























Interactive Weather Map
Tropical Storm Tracking
New forecast layout! Learn more

10-Day Weather Forecast

Advertisements
Track Severe Weather on mobile